TimeCDT,TemperatureF,Dew PointF,Humidity,Sea Level PressureIn,VisibilityMPH,Wind Direction,Wind SpeedMPH,Gust SpeedMPH,PrecipitationIn,Events,Conditions,WindDirDegrees,DateUTC
12:15 AM,46.9,46.9,100,30.14,2.5,Calm,Calm,-,N/A,,Clear,0,2013-06-14 05:15:00
12:35 AM,46.6,46.6,100,30.15,0.5,Calm,Calm,-,N/A,Fog,Fog,0,2013-06-14 05:35:00
12:55 AM,46.6,46.6,100,30.15,1.2,Calm,Calm,-,N/A,,Scattered Clouds,0,2013-06-14 05:55:00
1:15 AM,44.6,44.6,100,30.15,0.5,Calm,Calm,-,N/A,Fog,Fog,0,2013-06-14 06:15:00
1:35 AM,44.8,44.8,100,30.14,0.2,Calm,Calm,-,N/A,Fog,Fog,0,2013-06-14 06:35:00
1:55 AM,45.5,45.5,100,30.13,0.5,Calm,Calm,-,N/A,Fog,Fog,0,2013-06-14 06:55:00
2:15 AM,43.5,43.5,100,30.13,2.0,Calm,Calm,-,N/A,,Scattered Clouds,0,2013-06-14 07:15:00
2:35 AM,43.2,43.2,100,30.13,1.5,Calm,Calm,-,N/A,,Scattered Clouds,0,2013-06-14 07:35:00
2:55 AM,42.6,42.6,100,30.13,3.0,Calm,Calm,-,N/A,,Clear,0,2013-06-14 07:55:00
3:15 AM,43.2,43.2,100,30.14,0.5,Calm,Calm,-,N/A,Fog,Fog,0,2013-06-14 08:15:00
3:35 AM,41.9,41.9,100,30.15,0.5,Calm,Calm,-,N/A,Fog,Fog,0,2013-06-14 08:35:00
3:55 AM,41.9,41.9,100,30.15,0.8,Calm,Calm,-,N/A,,Mostly Cloudy,0,2013-06-14 08:55:00
4:15 AM,41.5,41.5,100,30.15,1.2,Calm,Calm,-,N/A,,Scattered Clouds,0,2013-06-14 09:15:00
4:35 AM,41.9,41.9,100,30.15,10.0,Calm,Calm,-,N/A,,Scattered Clouds,0,2013-06-14 09:35:00
4:55 AM,40.3,40.3,100,30.16,7.0,Calm,Calm,-,N/A,,Scattered Clouds,0,2013-06-14 09:55:00
5:15 AM,40.8,40.8,100,30.16,0.2,Calm,Calm,-,N/A,Fog,Fog,0,2013-06-14 10:15:00
5:35 AM,40.6,40.6,100,30.15,10.0,Calm,Calm,-,N/A,,Mostly Cloudy,0,2013-06-14 10:35:00
5:55 AM,42.3,42.3,100,30.15,10.0,NNE,3.5,-,N/A,,Scattered Clouds,20,2013-06-14 10:55:00
6:15 AM,43.9,43.9,100,30.16,10.0,Calm,Calm,-,N/A,,Clear,0,2013-06-14 11:15:00
6:35 AM,46.8,46.8,100,30.18,10.0,Calm,Calm,-,N/A,,Clear,0,2013-06-14 11:35:00
6:55 AM,48.9,48.9,100,30.18,10.0,Calm,Calm,-,N/A,,Clear,0,2013-06-14 11:55:00
7:15 AM,51.8,48.9,90,30.18,10.0,Calm,Calm,-,N/A,,Clear,0,2013-06-14 12:15:00
7:35 AM,55.2,42.3,62,30.18,10.0,ESE,5.8,-,N/A,,Clear,110,2013-06-14 12:35:00
7:55 AM,57.2,41.9,57,30.18,10.0,Calm,Calm,-,N/A,,Clear,0,2013-06-14 12:55:00
8:15 AM,58.5,41.0,52,30.17,10.0,East,6.9,-,N/A,,Clear,100,2013-06-14 13:15:00
8:35 AM,60.6,41.0,48,30.16,10.0,ESE,10.4,-,N/A,,Clear,110,2013-06-14 13:35:00
8:55 AM,61.0,41.2,48,30.17,10.0,ESE,5.8,-,N/A,,Clear,120,2013-06-14 13:55:00
9:15 AM,62.2,39.9,44,30.17,10.0,SE,5.8,-,N/A,,Clear,140,2013-06-14 14:15:00
9:35 AM,64.0,40.1,41,30.17,10.0,SE,4.6,-,N/A,,Clear,130,2013-06-14 14:35:00
9:55 AM,65.1,39.6,39,30.17,10.0,East,4.6,-,N/A,,Clear,100,2013-06-14 14:55:00
10:15 AM,66.0,39.0,37,30.16,10.0,SE,4.6,-,N/A,,Clear,140,2013-06-14 15:15:00
10:35 AM,67.1,37.6,34,30.16,10.0,South,4.6,-,N/A,,Clear,190,2013-06-14 15:35:00
10:55 AM,67.3,36.1,32,30.15,10.0,SE,3.5,-,N/A,,Clear,130,2013-06-14 15:55:00
11:15 AM,68.7,36.0,30,30.15,10.0,East,5.8,-,N/A,,Clear,100,2013-06-14 16:15:00
11:35 AM,69.3,37.0,31,30.14,10.0,East,6.9,-,N/A,,Clear,90,2013-06-14 16:35:00
11:55 AM,69.6,36.7,30,30.13,10.0,SSE,5.8,-,N/A,,Clear,160,2013-06-14 16:55:00
12:15 PM,70.2,33.6,26,30.13,10.0,West,3.5,-,N/A,,Clear,260,2013-06-14 17:15:00
12:35 PM,70.5,34.3,26,30.12,10.0,NE,4.6,-,N/A,,Clear,40,2013-06-14 17:35:00
12:55 PM,70.7,34.0,26,30.11,10.0,Calm,Calm,-,N/A,,Clear,0,2013-06-14 17:55:00
1:15 PM,71.8,34.5,26,30.11,10.0,SE,3.5,-,N/A,,Clear,140,2013-06-14 18:15:00
1:35 PM,73.0,35.8,26,30.11,10.0,Calm,Calm,-,N/A,,Clear,0,2013-06-14 18:35:00
1:55 PM,72.9,36.3,26,30.10,10.0,Calm,Calm,-,N/A,,Clear,0,2013-06-14 18:55:00
2:15 PM,73.8,36.7,26,30.09,10.0,Calm,Calm,-,N/A,,Clear,0,2013-06-14 19:15:00
2:35 PM,73.6,36.5,26,30.08,10.0,Calm,Calm,-,N/A,,Clear,0,2013-06-14 19:35:00
2:55 PM,74.5,35.8,24,30.07,10.0,SW,4.6,-,N/A,,Clear,220,2013-06-14 19:55:00
3:15 PM,74.7,36.7,25,30.07,10.0,SW,6.9,-,N/A,,Clear,230,2013-06-14 20:15:00
3:35 PM,75.2,39.9,28,30.06,10.0,SSE,3.5,-,N/A,,Clear,160,2013-06-14 20:35:00
3:55 PM,74.5,37.9,27,30.06,10.0,WSW,8.1,-,N/A,,Clear,240,2013-06-14 20:55:00
4:15 PM,74.7,39.4,28,30.05,10.0,South,5.8,-,N/A,,Clear,190,2013-06-14 21:15:00
4:35 PM,74.1,41.0,30,30.04,10.0,SSW,5.8,-,N/A,,Clear,210,2013-06-14 21:35:00
4:55 PM,74.3,41.0,30,30.03,10.0,SSW,8.1,-,N/A,,Clear,200,2013-06-14 21:55:00
5:15 PM,74.5,41.0,30,30.02,10.0,South,9.2,-,N/A,,Clear,180,2013-06-14 22:15:00
5:35 PM,73.4,41.7,32,30.02,10.0,SW,6.9,-,N/A,,Clear,230,2013-06-14 22:35:00
5:55 PM,73.6,41.4,31,30.02,10.0,SSW,4.6,-,N/A,,Clear,210,2013-06-14 22:55:00
6:15 PM,73.2,41.0,31,30.03,10.0,WSW,3.5,-,N/A,,Clear,240,2013-06-14 23:15:00
6:35 PM,72.9,41.9,33,30.02,10.0,SSW,3.5,-,N/A,,Clear,200,2013-06-14 23:35:00
6:55 PM,70.9,42.6,36,30.03,10.0,SW,3.5,-,N/A,,Clear,220,2013-06-14 23:55:00
7:15 PM,69.3,45.0,42,30.04,10.0,SW,5.8,-,N/A,,Clear,230,2013-06-15 00:15:00
7:35 PM,69.1,44.8,42,30.03,10.0,WSW,3.5,-,N/A,,Clear,240,2013-06-15 00:35:00
7:55 PM,68.0,45.7,45,30.03,10.0,Calm,Calm,-,N/A,,Clear,0,2013-06-15 00:55:00
8:15 PM,67.5,45.5,45,30.03,10.0,Calm,Calm,-,N/A,,Clear,0,2013-06-15 01:15:00
8:35 PM,65.7,47.8,53,30.02,10.0,SE,3.5,-,N/A,,Scattered Clouds,140,2013-06-15 01:35:00
8:55 PM,66.0,46.6,49,30.03,10.0,South,3.5,-,N/A,,Scattered Clouds,170,2013-06-15 01:55:00
9:15 PM,66.0,46.8,50,30.03,10.0,South,4.6,-,N/A,,Mostly Cloudy,190,2013-06-15 02:15:00
9:35 PM,64.9,47.5,53,30.03,10.0,Calm,Calm,-,N/A,,Overcast,0,2013-06-15 02:35:00
9:55 PM,65.1,47.5,53,30.01,10.0,Calm,Calm,-,N/A,,Mostly Cloudy,0,2013-06-15 02:55:00
10:35 PM,63.0,49.5,61,30.01,10.0,South,3.5,-,N/A,,Overcast,170,2013-06-15 03:35:00
10:55 PM,63.0,49.8,62,30.01,10.0,South,4.6,-,N/A,,Mostly Cloudy,170,2013-06-15 03:55:00
11:15 PM,63.0,49.1,61,30.01,10.0,South,3.5,-,N/A,,Overcast,170,2013-06-15 04:15:00
11:35 PM,61.7,49.1,63,30.01,10.0,Calm,Calm,-,N/A,,Overcast,0,2013-06-15 04:35:00
11:55 PM,61.7,49.3,64,30.01,10.0,SSE,3.5,-,N/A,,Overcast,160,2013-06-15 04:55:00